createdAt,value
2022-10-30T00:10:58.524Z,11.29
2022-10-30T00:31:01.239Z,11.07
2022-10-30T00:51:03.862Z,11.32
2022-10-30T01:11:06.475Z,11.17
2022-10-30T01:31:09.156Z,10.88
2022-10-30T01:51:11.635Z,10.91
2022-10-30T02:11:14.277Z,10.82
2022-10-30T02:31:16.990Z,10.48
2022-10-30T02:51:19.566Z,10.58
2022-10-30T03:11:22.044Z,11.21
2022-10-30T03:31:24.675Z,11.62
2022-10-30T03:51:27.430Z,11.89
2022-10-30T04:11:29.986Z,11.93
2022-10-30T04:31:32.786Z,12.17
2022-10-30T04:51:35.405Z,12.30
2022-10-30T05:11:38.042Z,12.40
2022-10-30T05:31:40.699Z,12.45
2022-10-30T05:51:43.313Z,12.50
2022-10-30T06:11:45.939Z,12.70
2022-10-30T06:31:48.492Z,12.90
2022-10-30T06:51:50.971Z,13.17
2022-10-30T07:11:56.622Z,13.61
2022-10-30T07:32:03.131Z,13.61
2022-10-30T07:52:06.184Z,14.79
2022-10-30T08:12:08.816Z,15.08
2022-10-30T08:32:11.460Z,15.28
2022-10-30T08:52:14.151Z,15.52
2022-10-30T09:12:17.400Z,15.81
2022-10-30T09:32:19.922Z,15.49
2022-10-30T09:52:22.474Z,16.26
2022-10-30T10:12:25.243Z,17.10
2022-10-30T10:32:27.788Z,18.30
2022-10-30T10:52:30.421Z,19.21
2022-10-30T11:12:35.462Z,20.12
2022-10-30T11:32:39.555Z,20.36
2022-10-30T11:52:42.121Z,20.33
2022-10-30T12:12:44.836Z,20.17
2022-10-30T12:32:47.497Z,20.22
2022-10-30T12:52:50.201Z,20.68
2022-10-30T13:12:55.869Z,21.73
2022-10-30T13:32:58.849Z,21.72
2022-10-30T13:53:01.919Z,21.69
2022-10-30T14:13:04.784Z,21.88
2022-10-30T14:33:07.503Z,21.32
2022-10-30T14:53:10.108Z,21.04
2022-10-30T15:13:12.827Z,20.35
2022-10-30T15:33:15.499Z,18.91
2022-10-30T15:53:18.018Z,17.78
2022-10-30T16:13:20.713Z,17.24
2022-10-30T16:33:23.419Z,17.06
2022-10-30T16:53:26.051Z,16.91
2022-10-30T17:13:28.671Z,16.48
2022-10-30T17:33:31.302Z,16.07
2022-10-30T17:53:33.862Z,15.88
2022-10-30T18:13:36.544Z,15.62
2022-10-30T18:33:39.221Z,14.83
2022-10-30T18:53:41.958Z,14.16
2022-10-30T19:13:44.693Z,13.87
2022-10-30T19:33:51.289Z,13.62
2022-10-30T19:53:57.325Z,13.58
2022-10-30T20:13:59.897Z,12.94
2022-10-30T20:34:03.537Z,13.11
2022-10-30T20:54:06.431Z,12.86
2022-10-30T21:14:08.960Z,12.45
2022-10-30T21:34:11.890Z,12.11
2022-10-30T21:54:14.627Z,12.55
2022-10-30T22:14:17.270Z,12.39
2022-10-30T22:34:19.996Z,11.73
2022-10-30T22:54:22.660Z,11.40
2022-10-30T23:14:25.356Z,11.55
2022-10-30T23:34:27.978Z,11.48
2022-10-30T23:54:30.440Z,11.21
